sensor_id;sensor_type;location;lat;lon;timestamp;P1;durP1;ratioP1;P2;durP2;ratioP2
6979;SDS011;3530;52.832;10.680;2023-07-02T00:00:55;3.28;;;3.08;;
6979;SDS011;3530;52.832;10.680;2023-07-02T00:03:40;4.53;;;2.88;;
6979;SDS011;3530;52.832;10.680;2023-07-02T00:06:26;2.90;;;2.70;;
6979;SDS011;3530;52.832;10.680;2023-07-02T00:09:12;3.05;;;2.88;;
6979;SDS011;3530;52.832;10.680;2023-07-02T00:11:58;4.45;;;2.50;;
6979;SDS011;3530;52.832;10.680;2023-07-02T00:14:43;4.25;;;2.63;;
6979;SDS011;3530;52.832;10.680;2023-07-02T00:17:29;5.07;;;3.17;;
6979;SDS011;3530;52.832;10.680;2023-07-02T00:20:15;2.88;;;2.50;;
6979;SDS011;3530;52.832;10.680;2023-07-02T00:23:02;2.65;;;2.53;;
6979;SDS011;3530;52.832;10.680;2023-07-02T00:25:48;2.53;;;2.40;;
6979;SDS011;3530;52.832;10.680;2023-07-02T00:28:34;3.05;;;2.40;;
6979;SDS011;3530;52.832;10.680;2023-07-02T00:31:19;2.85;;;2.65;;
6979;SDS011;3530;52.832;10.680;2023-07-02T00:34:05;2.60;;;2.40;;
6979;SDS011;3530;52.832;10.680;2023-07-02T00:36:51;3.88;;;3.17;;
6979;SDS011;3530;52.832;10.680;2023-07-02T00:39:36;3.13;;;2.83;;
6979;SDS011;3530;52.832;10.680;2023-07-02T00:42:22;4.07;;;2.70;;
6979;SDS011;3530;52.832;10.680;2023-07-02T00:45:08;2.42;;;2.22;;
6979;SDS011;3530;52.832;10.680;2023-07-02T00:47:54;2.85;;;2.47;;
6979;SDS011;3530;52.832;10.680;2023-07-02T00:50:40;5.55;;;2.63;;
6979;SDS011;3530;52.832;10.680;2023-07-02T00:53:26;2.40;;;2.28;;
6979;SDS011;3530;52.832;10.680;2023-07-02T00:56:12;2.60;;;2.38;;
6979;SDS011;3530;52.832;10.680;2023-07-02T00:58:58;2.22;;;2.10;;
6979;SDS011;3530;52.832;10.680;2023-07-02T01:01:44;2.75;;;2.65;;
6979;SDS011;3530;52.832;10.680;2023-07-02T01:04:34;2.15;;;2.05;;
6979;SDS011;3530;52.832;10.680;2023-07-02T01:07:20;3.78;;;2.50;;
6979;SDS011;3530;52.832;10.680;2023-07-02T01:10:07;4.20;;;2.72;;
6979;SDS011;3530;52.832;10.680;2023-07-02T01:12:53;2.70;;;2.53;;
6979;SDS011;3530;52.832;10.680;2023-07-02T01:15:40;2.88;;;2.75;;
6979;SDS011;3530;52.832;10.680;2023-07-02T01:18:27;2.53;;;2.42;;
6979;SDS011;3530;52.832;10.680;2023-07-02T01:21:13;3.47;;;2.67;;
6979;SDS011;3530;52.832;10.680;2023-07-02T01:23:59;4.15;;;2.65;;
6979;SDS011;3530;52.832;10.680;2023-07-02T01:26:48;3.63;;;3.33;;
6979;SDS011;3530;52.832;10.680;2023-07-02T01:29:34;3.03;;;2.83;;
6979;SDS011;3530;52.832;10.680;2023-07-02T01:32:21;2.65;;;2.50;;
6979;SDS011;3530;52.832;10.680;2023-07-02T01:35:08;3.53;;;3.30;;
6979;SDS011;3530;52.832;10.680;2023-07-02T01:37:54;4.53;;;3.33;;
6979;SDS011;3530;52.832;10.680;2023-07-02T01:40:39;3.35;;;2.60;;
6979;SDS011;3530;52.832;10.680;2023-07-02T01:43:25;2.85;;;2.65;;
6979;SDS011;3530;52.832;10.680;2023-07-02T01:46:11;3.33;;;3.13;;
6979;SDS011;3530;52.832;10.680;2023-07-02T01:48:56;3.53;;;3.22;;
6979;SDS011;3530;52.832;10.680;2023-07-02T01:51:49;2.92;;;2.50;;
6979;SDS011;3530;52.832;10.680;2023-07-02T01:54:35;4.15;;;3.05;;
6979;SDS011;3530;52.832;10.680;2023-07-02T01:57:21;2.65;;;2.45;;
6979;SDS011;3530;52.832;10.680;2023-07-02T02:00:07;3.50;;;3.20;;
6979;SDS011;3530;52.832;10.680;2023-07-02T02:02:54;6.10;;;3.20;;
6979;SDS011;3530;52.832;10.680;2023-07-02T02:05:40;2.67;;;2.40;;
6979;SDS011;3530;52.832;10.680;2023-07-02T02:08:25;3.47;;;3.20;;
6979;SDS011;3530;52.832;10.680;2023-07-02T02:11:11;3.92;;;3.28;;
6979;SDS011;3530;52.832;10.680;2023-07-02T02:13:57;3.28;;;2.75;;
6979;SDS011;3530;52.832;10.680;2023-07-02T02:16:43;3.17;;;2.85;;
6979;SDS011;3530;52.832;10.680;2023-07-02T02:19:32;4.22;;;3.22;;
6979;SDS011;3530;52.832;10.680;2023-07-02T02:22:18;3.55;;;2.85;;
6979;SDS011;3530;52.832;10.680;2023-07-02T02:25:03;3.22;;;2.72;;
6979;SDS011;3530;52.832;10.680;2023-07-02T02:27:49;3.45;;;3.17;;
6979;SDS011;3530;52.832;10.680;2023-07-02T02:30:35;3.00;;;2.70;;
6979;SDS011;3530;52.832;10.680;2023-07-02T02:33:21;2.75;;;2.55;;
6979;SDS011;3530;52.832;10.680;2023-07-02T02:36:07;3.40;;;3.00;;
6979;SDS011;3530;52.832;10.680;2023-07-02T02:38:52;3.40;;;2.70;;
6979;SDS011;3530;52.832;10.680;2023-07-02T02:41:38;3.28;;;2.95;;
6979;SDS011;3530;52.832;10.680;2023-07-02T02:44:24;4.85;;;3.00;;
6979;SDS011;3530;52.832;10.680;2023-07-02T02:47:09;3.78;;;2.60;;
6979;SDS011;3530;52.832;10.680;2023-07-02T02:49:55;3.30;;;2.60;;
6979;SDS011;3530;52.832;10.680;2023-07-02T02:52:40;3.92;;;3.63;;
6979;SDS011;3530;52.832;10.680;2023-07-02T02:55:26;3.20;;;3.00;;
6979;SDS011;3530;52.832;10.680;2023-07-02T02:58:13;3.80;;;2.88;;
6979;SDS011;3530;52.832;10.680;2023-07-02T03:00:59;3.35;;;2.85;;
6979;SDS011;3530;52.832;10.680;2023-07-02T03:03:44;2.63;;;2.53;;
6979;SDS011;3530;52.832;10.680;2023-07-02T03:06:30;3.30;;;3.10;;
6979;SDS011;3530;52.832;10.680;2023-07-02T03:09:16;3.80;;;2.80;;
6979;SDS011;3530;52.832;10.680;2023-07-02T03:12:02;2.45;;;2.33;;
6979;SDS011;3530;52.832;10.680;2023-07-02T03:14:48;3.88;;;2.95;;
6979;SDS011;3530;52.832;10.680;2023-07-02T03:17:38;3.75;;;2.95;;
6979;SDS011;3530;52.832;10.680;2023-07-02T03:20:23;4.47;;;3.35;;
6979;SDS011;3530;52.832;10.680;2023-07-02T03:23:09;6.78;;;3.13;;
6979;SDS011;3530;52.832;10.680;2023-07-02T03:25:55;3.55;;;3.05;;
6979;SDS011;3530;52.832;10.680;2023-07-02T03:28:40;4.72;;;3.33;;
6979;SDS011;3530;52.832;10.680;2023-07-02T03:31:26;3.20;;;2.90;;
6979;SDS011;3530;52.832;10.680;2023-07-02T03:34:12;3.53;;;3.05;;
6979;SDS011;3530;52.832;10.680;2023-07-02T03:36:57;3.53;;;3.28;;
6979;SDS011;3530;52.832;10.680;2023-07-02T03:39:43;2.45;;;2.35;;
6979;SDS011;3530;52.832;10.680;2023-07-02T03:42:29;3.22;;;2.80;;
6979;SDS011;3530;52.832;10.680;2023-07-02T03:45:14;3.15;;;2.95;;
6979;SDS011;3530;52.832;10.680;2023-07-02T03:48:00;6.85;;;3.00;;
6979;SDS011;3530;52.832;10.680;2023-07-02T03:50:46;3.05;;;2.75;;
6979;SDS011;3530;52.832;10.680;2023-07-02T03:53:32;4.20;;;2.55;;
6979;SDS011;3530;52.832;10.680;2023-07-02T03:56:17;4.97;;;2.80;;
6979;SDS011;3530;52.832;10.680;2023-07-02T03:59:03;5.10;;;2.88;;
6979;SDS011;3530;52.832;10.680;2023-07-02T04:01:48;3.10;;;2.65;;
6979;SDS011;3530;52.832;10.680;2023-07-02T04:04:36;3.95;;;2.90;;
6979;SDS011;3530;52.832;10.680;2023-07-02T04:07:22;3.05;;;2.72;;
6979;SDS011;3530;52.832;10.680;2023-07-02T04:10:07;8.00;;;3.35;;
6979;SDS011;3530;52.832;10.680;2023-07-02T04:12:53;4.53;;;2.90;;
6979;SDS011;3530;52.832;10.680;2023-07-02T04:15:39;3.92;;;2.58;;
6979;SDS011;3530;52.832;10.680;2023-07-02T04:18:24;3.83;;;3.53;;
6979;SDS011;3530;52.832;10.680;2023-07-02T04:21:10;5.32;;;3.65;;
6979;SDS011;3530;52.832;10.680;2023-07-02T04:23:56;3.13;;;2.92;;
6979;SDS011;3530;52.832;10.680;2023-07-02T04:26:41;7.53;;;3.50;;
6979;SDS011;3530;52.832;10.680;2023-07-02T04:29:28;3.20;;;2.92;;
6979;SDS011;3530;52.832;10.680;2023-07-02T04:32:13;4.00;;;2.85;;
6979;SDS011;3530;52.832;10.680;2023-07-02T04:34:59;3.00;;;2.70;;
6979;SDS011;3530;52.832;10.680;2023-07-02T04:37:45;3.20;;;2.60;;
6979;SDS011;3530;52.832;10.680;2023-07-02T04:40:30;3.35;;;3.08;;
6979;SDS011;3530;52.832;10.680;2023-07-02T04:43:16;5.10;;;3.10;;
6979;SDS011;3530;52.832;10.680;2023-07-02T04:46:03;4.18;;;3.50;;
6979;SDS011;3530;52.832;10.680;2023-07-02T04:48:53;6.28;;;3.53;;
6979;SDS011;3530;52.832;10.680;2023-07-02T04:51:38;4.93;;;3.35;;
6979;SDS011;3530;52.832;10.680;2023-07-02T04:54:24;4.90;;;3.50;;
6979;SDS011;3530;52.832;10.680;2023-07-02T04:57:10;3.15;;;2.95;;
6979;SDS011;3530;52.832;10.680;2023-07-02T04:59:55;3.63;;;3.40;;
6979;SDS011;3530;52.832;10.680;2023-07-02T05:02:41;6.15;;;3.40;;
6979;SDS011;3530;52.832;10.680;2023-07-02T05:05:27;3.83;;;3.15;;
6979;SDS011;3530;52.832;10.680;2023-07-02T05:08:12;4.47;;;3.13;;
6979;SDS011;3530;52.832;10.680;2023-07-02T05:10:58;4.82;;;3.33;;
6979;SDS011;3530;52.832;10.680;2023-07-02T05:13:44;3.97;;;3.35;;
6979;SDS011;3530;52.832;10.680;2023-07-02T05:16:30;5.68;;;3.47;;
6979;SDS011;3530;52.832;10.680;2023-07-02T05:19:16;6.45;;;3.97;;
6979;SDS011;3530;52.832;10.680;2023-07-02T05:22:01;5.35;;;3.45;;
6979;SDS011;3530;52.832;10.680;2023-07-02T05:24:47;3.90;;;3.13;;
6979;SDS011;3530;52.832;10.680;2023-07-02T05:27:33;3.78;;;3.28;;
6979;SDS011;3530;52.832;10.680;2023-07-02T05:30:19;4.05;;;3.65;;
6979;SDS011;3530;52.832;10.680;2023-07-02T05:33:04;6.13;;;3.30;;
6979;SDS011;3530;52.832;10.680;2023-07-02T05:35:50;3.28;;;2.97;;
6979;SDS011;3530;52.832;10.680;2023-07-02T05:38:36;3.42;;;3.15;;
6979;SDS011;3530;52.832;10.680;2023-07-02T05:41:21;4.03;;;2.92;;
6979;SDS011;3530;52.832;10.680;2023-07-02T05:44:07;8.20;;;3.10;;
6979;SDS011;3530;52.832;10.680;2023-07-02T05:46:53;4.88;;;4.20;;
6979;SDS011;3530;52.832;10.680;2023-07-02T05:49:40;4.15;;;3.75;;
6979;SDS011;3530;52.832;10.680;2023-07-02T05:52:26;4.32;;;3.08;;
6979;SDS011;3530;52.832;10.680;2023-07-02T05:55:12;9.32;;;3.97;;
6979;SDS011;3530;52.832;10.680;2023-07-02T05:57:58;3.78;;;3.20;;
6979;SDS011;3530;52.832;10.680;2023-07-02T06:00:46;4.70;;;3.10;;
6979;SDS011;3530;52.832;10.680;2023-07-02T06:03:34;7.35;;;3.72;;
6979;SDS011;3530;52.832;10.680;2023-07-02T06:06:21;3.85;;;3.03;;
6979;SDS011;3530;52.832;10.680;2023-07-02T06:09:07;7.15;;;3.60;;
6979;SDS011;3530;52.832;10.680;2023-07-02T06:11:53;9.27;;;3.88;;
6979;SDS011;3530;52.832;10.680;2023-07-02T06:14:39;5.25;;;4.03;;
6979;SDS011;3530;52.832;10.680;2023-07-02T06:17:24;8.15;;;3.60;;
6979;SDS011;3530;52.832;10.680;2023-07-02T06:20:10;5.03;;;3.78;;
6979;SDS011;3530;52.832;10.680;2023-07-02T06:22:56;4.82;;;3.75;;
6979;SDS011;3530;52.832;10.680;2023-07-02T06:25:42;5.22;;;3.78;;
6979;SDS011;3530;52.832;10.680;2023-07-02T06:28:28;7.50;;;4.05;;
6979;SDS011;3530;52.832;10.680;2023-07-02T06:31:13;5.47;;;3.80;;
6979;SDS011;3530;52.832;10.680;2023-07-02T06:33:59;5.22;;;3.35;;
6979;SDS011;3530;52.832;10.680;2023-07-02T06:36:44;4.32;;;3.30;;
6979;SDS011;3530;52.832;10.680;2023-07-02T06:39:30;9.35;;;4.28;;
6979;SDS011;3530;52.832;10.680;2023-07-02T06:42:16;6.22;;;4.03;;
6979;SDS011;3530;52.832;10.680;2023-07-02T06:45:02;9.43;;;3.22;;
6979;SDS011;3530;52.832;10.680;2023-07-02T06:47:49;7.68;;;4.80;;
6979;SDS011;3530;52.832;10.680;2023-07-02T06:50:35;8.43;;;4.20;;
6979;SDS011;3530;52.832;10.680;2023-07-02T06:53:20;7.20;;;3.70;;
6979;SDS011;3530;52.832;10.680;2023-07-02T06:56:07;4.13;;;3.08;;
6979;SDS011;3530;52.832;10.680;2023-07-02T06:58:53;9.88;;;4.88;;
6979;SDS011;3530;52.832;10.680;2023-07-02T07:01:39;10.77;;;4.57;;
6979;SDS011;3530;52.832;10.680;2023-07-02T07:04:24;8.05;;;4.35;;
6979;SDS011;3530;52.832;10.680;2023-07-02T07:07:10;10.25;;;4.40;;
6979;SDS011;3530;52.832;10.680;2023-07-02T07:09:56;7.45;;;4.18;;
6979;SDS011;3530;52.832;10.680;2023-07-02T07:12:41;8.85;;;4.93;;
6979;SDS011;3530;52.832;10.680;2023-07-02T07:15:29;8.52;;;5.63;;
6979;SDS011;3530;52.832;10.680;2023-07-02T07:18:15;12.80;;;4.85;;
6979;SDS011;3530;52.832;10.680;2023-07-02T07:21:03;13.45;;;5.40;;
6979;SDS011;3530;52.832;10.680;2023-07-02T07:23:49;10.52;;;5.25;;
6979;SDS011;3530;52.832;10.680;2023-07-02T07:26:35;10.88;;;5.47;;
6979;SDS011;3530;52.832;10.680;2023-07-02T07:29:21;9.25;;;4.55;;
6979;SDS011;3530;52.832;10.680;2023-07-02T07:32:07;12.05;;;5.32;;
6979;SDS011;3530;52.832;10.680;2023-07-02T07:34:53;11.23;;;5.43;;
6979;SDS011;3530;52.832;10.680;2023-07-02T07:37:39;12.65;;;5.00;;
6979;SDS011;3530;52.832;10.680;2023-07-02T07:40:24;12.95;;;4.80;;
6979;SDS011;3530;52.832;10.680;2023-07-02T07:43:10;13.40;;;5.50;;
6979;SDS011;3530;52.832;10.680;2023-07-02T07:45:56;9.07;;;5.00;;
6979;SDS011;3530;52.832;10.680;2023-07-02T07:48:41;12.23;;;5.15;;
6979;SDS011;3530;52.832;10.680;2023-07-02T07:51:27;9.50;;;4.00;;
6979;SDS011;3530;52.832;10.680;2023-07-02T07:54:13;8.07;;;4.30;;
6979;SDS011;3530;52.832;10.680;2023-07-02T07:56:58;10.55;;;2.95;;
6979;SDS011;3530;52.832;10.680;2023-07-02T07:59:44;7.18;;;4.60;;
6979;SDS011;3530;52.832;10.680;2023-07-02T08:02:29;10.07;;;5.10;;
6979;SDS011;3530;52.832;10.680;2023-07-02T08:05:15;11.10;;;5.57;;
6979;SDS011;3530;52.832;10.680;2023-07-02T08:08:01;9.68;;;5.03;;
6979;SDS011;3530;52.832;10.680;2023-07-02T08:10:46;10.98;;;5.03;;
6979;SDS011;3530;52.832;10.680;2023-07-02T08:13:34;11.38;;;5.70;;
6979;SDS011;3530;52.832;10.680;2023-07-02T08:16:19;11.50;;;5.45;;
6979;SDS011;3530;52.832;10.680;2023-07-02T08:19:05;8.38;;;5.20;;
6979;SDS011;3530;52.832;10.680;2023-07-02T08:21:51;10.77;;;6.35;;
6979;SDS011;3530;52.832;10.680;2023-07-02T08:24:36;9.73;;;5.65;;
6979;SDS011;3530;52.832;10.680;2023-07-02T08:27:22;10.70;;;4.65;;
6979;SDS011;3530;52.832;10.680;2023-07-02T08:30:08;9.13;;;5.60;;
6979;SDS011;3530;52.832;10.680;2023-07-02T08:32:54;10.38;;;4.60;;
6979;SDS011;3530;52.832;10.680;2023-07-02T08:35:41;10.13;;;4.25;;
6979;SDS011;3530;52.832;10.680;2023-07-02T08:38:26;14.23;;;5.60;;
6979;SDS011;3530;52.832;10.680;2023-07-02T08:41:12;9.20;;;4.65;;
6979;SDS011;3530;52.832;10.680;2023-07-02T08:43:58;12.23;;;5.60;;
6979;SDS011;3530;52.832;10.680;2023-07-02T08:46:44;9.80;;;5.65;;
6979;SDS011;3530;52.832;10.680;2023-07-02T08:49:30;5.40;;;4.43;;
6979;SDS011;3530;52.832;10.680;2023-07-02T08:52:16;8.93;;;4.10;;
6979;SDS011;3530;52.832;10.680;2023-07-02T08:55:01;14.07;;;4.95;;
6979;SDS011;3530;52.832;10.680;2023-07-02T08:57:49;9.70;;;5.68;;
6979;SDS011;3530;52.832;10.680;2023-07-02T09:00:37;11.98;;;5.25;;
6979;SDS011;3530;52.832;10.680;2023-07-02T09:03:23;11.25;;;5.60;;
6979;SDS011;3530;52.832;10.680;2023-07-02T09:06:11;9.55;;;4.25;;
6979;SDS011;3530;52.832;10.680;2023-07-02T09:09:04;8.27;;;4.68;;
6979;SDS011;3530;52.832;10.680;2023-07-02T09:11:50;8.52;;;4.70;;
6979;SDS011;3530;52.832;10.680;2023-07-02T09:14:36;12.45;;;5.22;;
6979;SDS011;3530;52.832;10.680;2023-07-02T09:17:21;8.25;;;3.47;;
6979;SDS011;3530;52.832;10.680;2023-07-02T09:20:07;14.45;;;6.07;;
6979;SDS011;3530;52.832;10.680;2023-07-02T09:22:53;8.73;;;5.13;;
6979;SDS011;3530;52.832;10.680;2023-07-02T09:25:40;10.45;;;5.07;;
6979;SDS011;3530;52.832;10.680;2023-07-02T09:28:26;6.72;;;4.20;;
6979;SDS011;3530;52.832;10.680;2023-07-02T09:31:11;9.30;;;5.00;;
6979;SDS011;3530;52.832;10.680;2023-07-02T09:34:03;10.57;;;4.63;;
6979;SDS011;3530;52.832;10.680;2023-07-02T09:36:49;9.93;;;3.60;;
6979;SDS011;3530;52.832;10.680;2023-07-02T09:39:35;9.90;;;5.07;;
6979;SDS011;3530;52.832;10.680;2023-07-02T09:42:21;7.63;;;4.75;;
6979;SDS011;3530;52.832;10.680;2023-07-02T09:45:08;11.32;;;4.78;;
6979;SDS011;3530;52.832;10.680;2023-07-02T09:47:54;12.55;;;5.00;;
6979;SDS011;3530;52.832;10.680;2023-07-02T09:50:45;8.73;;;4.80;;
6979;SDS011;3530;52.832;10.680;2023-07-02T09:53:32;6.40;;;3.80;;
6979;SDS011;3530;52.832;10.680;2023-07-02T09:56:18;11.60;;;4.65;;
6979;SDS011;3530;52.832;10.680;2023-07-02T09:59:06;6.78;;;3.60;;
6979;SDS011;3530;52.832;10.680;2023-07-02T10:01:52;11.10;;;5.05;;
6979;SDS011;3530;52.832;10.680;2023-07-02T10:04:41;11.32;;;5.50;;
6979;SDS011;3530;52.832;10.680;2023-07-02T10:07:29;7.63;;;4.43;;
6979;SDS011;3530;52.832;10.680;2023-07-02T10:10:25;9.77;;;4.22;;
6979;SDS011;3530;52.832;10.680;2023-07-02T10:13:14;7.88;;;3.70;;
6979;SDS011;3530;52.832;10.680;2023-07-02T10:16:03;8.07;;;4.43;;
6979;SDS011;3530;52.832;10.680;2023-07-02T10:18:49;8.82;;;5.05;;
6979;SDS011;3530;52.832;10.680;2023-07-02T10:21:35;9.07;;;4.80;;
6979;SDS011;3530;52.832;10.680;2023-07-02T10:24:21;7.05;;;4.10;;
6979;SDS011;3530;52.832;10.680;2023-07-02T10:27:06;7.30;;;4.18;;
6979;SDS011;3530;52.832;10.680;2023-07-02T10:29:53;8.98;;;4.20;;
6979;SDS011;3530;52.832;10.680;2023-07-02T10:32:39;6.40;;;3.47;;
6979;SDS011;3530;52.832;10.680;2023-07-02T10:35:25;9.45;;;4.82;;
6979;SDS011;3530;52.832;10.680;2023-07-02T10:38:14;12.70;;;5.40;;
6979;SDS011;3530;52.832;10.680;2023-07-02T10:41:01;9.52;;;4.75;;
6979;SDS011;3530;52.832;10.680;2023-07-02T10:43:46;9.10;;;4.60;;
6979;SDS011;3530;52.832;10.680;2023-07-02T10:46:32;7.85;;;3.88;;
6979;SDS011;3530;52.832;10.680;2023-07-02T10:49:18;8.05;;;4.82;;
6979;SDS011;3530;52.832;10.680;2023-07-02T10:52:06;9.05;;;4.10;;
6979;SDS011;3530;52.832;10.680;2023-07-02T10:54:52;9.02;;;4.78;;
6979;SDS011;3530;52.832;10.680;2023-07-02T10:57:38;6.68;;;4.38;;
6979;SDS011;3530;52.832;10.680;2023-07-02T11:00:24;9.88;;;4.50;;
6979;SDS011;3530;52.832;10.680;2023-07-02T11:03:22;9.88;;;5.35;;
6979;SDS011;3530;52.832;10.680;2023-07-02T11:06:09;8.27;;;4.72;;
6979;SDS011;3530;52.832;10.680;2023-07-02T11:08:56;9.18;;;5.50;;
6979;SDS011;3530;52.832;10.680;2023-07-02T11:11:51;8.02;;;5.22;;
6979;SDS011;3530;52.832;10.680;2023-07-02T11:14:38;8.18;;;4.47;;
6979;SDS011;3530;52.832;10.680;2023-07-02T11:17:25;6.03;;;4.10;;
6979;SDS011;3530;52.832;10.680;2023-07-02T11:20:12;8.80;;;4.75;;
6979;SDS011;3530;52.832;10.680;2023-07-02T11:22:59;8.55;;;5.00;;
6979;SDS011;3530;52.832;10.680;2023-07-02T11:25:57;10.43;;;5.57;;
6979;SDS011;3530;52.832;10.680;2023-07-02T11:28:47;9.13;;;4.03;;
6979;SDS011;3530;52.832;10.680;2023-07-02T11:31:35;8.88;;;4.93;;
6979;SDS011;3530;52.832;10.680;2023-07-02T11:34:21;9.60;;;4.68;;
6979;SDS011;3530;52.832;10.680;2023-07-02T11:37:07;5.85;;;3.67;;
6979;SDS011;3530;52.832;10.680;2023-07-02T11:39:53;10.45;;;4.35;;
6979;SDS011;3530;52.832;10.680;2023-07-02T11:42:39;11.55;;;4.32;;
6979;SDS011;3530;52.832;10.680;2023-07-02T11:45:24;8.15;;;4.28;;
6979;SDS011;3530;52.832;10.680;2023-07-02T11:48:10;7.53;;;4.28;;
6979;SDS011;3530;52.832;10.680;2023-07-02T11:50:55;6.57;;;4.47;;
6979;SDS011;3530;52.832;10.680;2023-07-02T11:53:41;12.02;;;5.15;;
6979;SDS011;3530;52.832;10.680;2023-07-02T11:56:27;12.45;;;4.82;;
6979;SDS011;3530;52.832;10.680;2023-07-02T11:59:12;11.93;;;5.82;;
6979;SDS011;3530;52.832;10.680;2023-07-02T12:01:58;15.63;;;5.07;;
6979;SDS011;3530;52.832;10.680;2023-07-02T12:04:44;13.50;;;6.18;;
6979;SDS011;3530;52.832;10.680;2023-07-02T12:07:29;7.95;;;4.60;;
6979;SDS011;3530;52.832;10.680;2023-07-02T12:10:15;9.30;;;4.25;;
6979;SDS011;3530;52.832;10.680;2023-07-02T12:13:00;10.88;;;4.90;;
6979;SDS011;3530;52.832;10.680;2023-07-02T12:15:46;9.10;;;4.97;;
6979;SDS011;3530;52.832;10.680;2023-07-02T12:18:32;4.20;;;3.20;;
6979;SDS011;3530;52.832;10.680;2023-07-02T12:21:18;8.25;;;4.82;;
6979;SDS011;3530;52.832;10.680;2023-07-02T12:24:05;7.28;;;4.68;;
6979;SDS011;3530;52.832;10.680;2023-07-02T12:26:54;6.38;;;3.97;;
6979;SDS011;3530;52.832;10.680;2023-07-02T12:29:40;10.73;;;4.72;;
6979;SDS011;3530;52.832;10.680;2023-07-02T12:32:25;11.38;;;4.53;;
6979;SDS011;3530;52.832;10.680;2023-07-02T12:35:11;8.13;;;3.80;;
6979;SDS011;3530;52.832;10.680;2023-07-02T12:37:57;10.82;;;3.90;;
6979;SDS011;3530;52.832;10.680;2023-07-02T12:40:43;8.43;;;4.10;;
6979;SDS011;3530;52.832;10.680;2023-07-02T12:43:28;5.15;;;3.50;;
6979;SDS011;3530;52.832;10.680;2023-07-02T12:46:14;13.77;;;3.50;;
6979;SDS011;3530;52.832;10.680;2023-07-02T12:48:59;3.65;;;2.28;;
6979;SDS011;3530;52.832;10.680;2023-07-02T12:51:45;6.95;;;4.00;;
6979;SDS011;3530;52.832;10.680;2023-07-02T12:54:32;8.77;;;4.72;;
6979;SDS011;3530;52.832;10.680;2023-07-02T12:57:17;8.68;;;4.38;;
6979;SDS011;3530;52.832;10.680;2023-07-02T13:00:03;6.10;;;4.15;;
6979;SDS011;3530;52.832;10.680;2023-07-02T13:02:51;7.90;;;4.70;;
6979;SDS011;3530;52.832;10.680;2023-07-02T13:05:37;9.63;;;4.47;;
6979;SDS011;3530;52.832;10.680;2023-07-02T13:08:23;6.70;;;3.58;;
6979;SDS011;3530;52.832;10.680;2023-07-02T13:11:08;9.07;;;3.40;;
6979;SDS011;3530;52.832;10.680;2023-07-02T13:13:54;7.72;;;4.13;;
6979;SDS011;3530;52.832;10.680;2023-07-02T13:16:39;5.50;;;3.10;;
6979;SDS011;3530;52.832;10.680;2023-07-02T13:19:25;6.85;;;4.32;;
6979;SDS011;3530;52.832;10.680;2023-07-02T13:22:11;5.60;;;3.28;;
6979;SDS011;3530;52.832;10.680;2023-07-02T13:24:56;7.18;;;3.25;;
6979;SDS011;3530;52.832;10.680;2023-07-02T13:27:42;5.72;;;2.58;;
6979;SDS011;3530;52.832;10.680;2023-07-02T13:30:28;6.20;;;3.28;;
6979;SDS011;3530;52.832;10.680;2023-07-02T13:33:16;9.95;;;3.20;;
6979;SDS011;3530;52.832;10.680;2023-07-02T13:36:01;5.22;;;3.33;;
6979;SDS011;3530;52.832;10.680;2023-07-02T13:38:47;8.52;;;3.67;;
6979;SDS011;3530;52.832;10.680;2023-07-02T13:41:33;7.55;;;4.13;;
6979;SDS011;3530;52.832;10.680;2023-07-02T13:44:19;5.57;;;2.90;;
6979;SDS011;3530;52.832;10.680;2023-07-02T13:47:04;5.43;;;3.55;;
6979;SDS011;3530;52.832;10.680;2023-07-02T13:49:50;4.45;;;3.33;;
6979;SDS011;3530;52.832;10.680;2023-07-02T13:52:37;4.68;;;3.95;;
6979;SDS011;3530;52.832;10.680;2023-07-02T13:55:23;6.00;;;3.20;;
6979;SDS011;3530;52.832;10.680;2023-07-02T13:58:12;7.35;;;3.05;;
6979;SDS011;3530;52.832;10.680;2023-07-02T14:00:58;4.88;;;2.65;;
6979;SDS011;3530;52.832;10.680;2023-07-02T14:03:44;4.68;;;2.90;;
6979;SDS011;3530;52.832;10.680;2023-07-02T14:06:29;5.63;;;2.63;;
6979;SDS011;3530;52.832;10.680;2023-07-02T14:09:15;8.75;;;3.58;;
6979;SDS011;3530;52.832;10.680;2023-07-02T14:12:01;3.03;;;2.38;;
6979;SDS011;3530;52.832;10.680;2023-07-02T14:14:47;5.53;;;4.03;;
6979;SDS011;3530;52.832;10.680;2023-07-02T14:17:32;6.38;;;3.58;;
6979;SDS011;3530;52.832;10.680;2023-07-02T14:20:18;5.30;;;3.13;;
6979;SDS011;3530;52.832;10.680;2023-07-02T14:23:04;4.20;;;3.58;;
6979;SDS011;3530;52.832;10.680;2023-07-02T14:25:50;6.50;;;2.90;;
6979;SDS011;3530;52.832;10.680;2023-07-02T14:28:35;6.05;;;3.63;;
6979;SDS011;3530;52.832;10.680;2023-07-02T14:31:21;5.47;;;3.40;;
6979;SDS011;3530;52.832;10.680;2023-07-02T14:34:07;7.85;;;3.88;;
6979;SDS011;3530;52.832;10.680;2023-07-02T14:36:52;6.47;;;3.20;;
6979;SDS011;3530;52.832;10.680;2023-07-02T14:39:38;6.75;;;3.55;;
6979;SDS011;3530;52.832;10.680;2023-07-02T14:42:24;8.82;;;3.88;;
6979;SDS011;3530;52.832;10.680;2023-07-02T14:45:09;5.78;;;4.05;;
6979;SDS011;3530;52.832;10.680;2023-07-02T14:47:55;4.63;;;3.00;;
6979;SDS011;3530;52.832;10.680;2023-07-02T14:50:47;7.20;;;4.25;;
6979;SDS011;3530;52.832;10.680;2023-07-02T14:53:33;6.20;;;3.97;;
6979;SDS011;3530;52.832;10.680;2023-07-02T14:56:19;5.35;;;3.33;;
6979;SDS011;3530;52.832;10.680;2023-07-02T14:59:05;7.20;;;3.80;;
6979;SDS011;3530;52.832;10.680;2023-07-02T15:01:52;5.88;;;3.67;;
6979;SDS011;3530;52.832;10.680;2023-07-02T15:04:37;6.78;;;3.92;;
6979;SDS011;3530;52.832;10.680;2023-07-02T15:07:23;8.70;;;3.75;;
6979;SDS011;3530;52.832;10.680;2023-07-02T15:10:09;6.57;;;3.88;;
6979;SDS011;3530;52.832;10.680;2023-07-02T15:12:54;7.75;;;3.63;;
6979;SDS011;3530;52.832;10.680;2023-07-02T15:15:40;5.72;;;3.30;;
6979;SDS011;3530;52.832;10.680;2023-07-02T15:18:26;7.57;;;3.65;;
6979;SDS011;3530;52.832;10.680;2023-07-02T15:21:12;10.38;;;4.10;;
6979;SDS011;3530;52.832;10.680;2023-07-02T15:23:58;7.22;;;3.67;;
6979;SDS011;3530;52.832;10.680;2023-07-02T15:26:44;7.35;;;3.42;;
6979;SDS011;3530;52.832;10.680;2023-07-02T15:29:29;6.07;;;3.83;;
6979;SDS011;3530;52.832;10.680;2023-07-02T15:32:15;4.97;;;4.00;;
6979;SDS011;3530;52.832;10.680;2023-07-02T15:35:01;7.95;;;3.38;;
6979;SDS011;3530;52.832;10.680;2023-07-02T15:37:46;8.60;;;4.72;;
6979;SDS011;3530;52.832;10.680;2023-07-02T15:40:32;5.70;;;3.42;;
6979;SDS011;3530;52.832;10.680;2023-07-02T15:43:18;4.97;;;3.45;;
6979;SDS011;3530;52.832;10.680;2023-07-02T15:46:04;5.30;;;3.65;;
6979;SDS011;3530;52.832;10.680;2023-07-02T15:48:49;4.97;;;3.35;;
6979;SDS011;3530;52.832;10.680;2023-07-02T15:51:36;5.07;;;2.78;;
6979;SDS011;3530;52.832;10.680;2023-07-02T15:54:22;6.18;;;3.53;;
6979;SDS011;3530;52.832;10.680;2023-07-02T15:57:08;3.05;;;2.50;;
6979;SDS011;3530;52.832;10.680;2023-07-02T15:59:53;6.78;;;3.42;;
6979;SDS011;3530;52.832;10.680;2023-07-02T16:02:43;5.93;;;3.33;;
6979;SDS011;3530;52.832;10.680;2023-07-02T16:05:29;7.68;;;3.40;;
6979;SDS011;3530;52.832;10.680;2023-07-02T16:08:14;5.97;;;3.20;;
6979;SDS011;3530;52.832;10.680;2023-07-02T16:11:00;4.75;;;3.03;;
6979;SDS011;3530;52.832;10.680;2023-07-02T16:13:49;3.22;;;2.90;;
6979;SDS011;3530;52.832;10.680;2023-07-02T16:16:39;6.53;;;3.22;;
6979;SDS011;3530;52.832;10.680;2023-07-02T16:19:26;7.25;;;3.25;;
6979;SDS011;3530;52.832;10.680;2023-07-02T16:22:11;5.53;;;2.78;;
6979;SDS011;3530;52.832;10.680;2023-07-02T16:24:57;3.25;;;2.95;;
6979;SDS011;3530;52.832;10.680;2023-07-02T16:27:43;5.13;;;2.70;;
6979;SDS011;3530;52.832;10.680;2023-07-02T16:30:28;9.43;;;3.92;;
6979;SDS011;3530;52.832;10.680;2023-07-02T16:33:15;5.65;;;3.33;;
6979;SDS011;3530;52.832;10.680;2023-07-02T16:36:03;4.97;;;3.25;;
6979;SDS011;3530;52.832;10.680;2023-07-02T16:38:52;4.57;;;2.95;;
6979;SDS011;3530;52.832;10.680;2023-07-02T16:41:39;6.43;;;3.20;;
6979;SDS011;3530;52.832;10.680;2023-07-02T16:44:31;3.10;;;2.50;;
6979;SDS011;3530;52.832;10.680;2023-07-02T16:47:17;5.03;;;3.05;;
6979;SDS011;3530;52.832;10.680;2023-07-02T16:50:02;5.45;;;3.30;;
6979;SDS011;3530;52.832;10.680;2023-07-02T16:52:48;3.00;;;2.50;;
6979;SDS011;3530;52.832;10.680;2023-07-02T16:55:34;4.43;;;3.35;;